createdAt,value
2023-01-09T00:01:45.407Z,94879.78
2023-01-09T00:04:13.624Z,94890.31
2023-01-09T00:06:43.388Z,94888.41
2023-01-09T00:09:12.043Z,94890.28
2023-01-09T00:11:40.197Z,94892.84
2023-01-09T00:14:11.061Z,94884.94
2023-01-09T00:16:39.280Z,94886.56
2023-01-09T00:19:07.576Z,94888.88
2023-01-09T00:21:36.491Z,94888.03
2023-01-09T00:24:05.539Z,94882.53
2023-01-09T00:26:33.785Z,94882.22
2023-01-09T00:29:03.886Z,94883.75
2023-01-09T00:31:33.787Z,94878.31
2023-01-09T00:34:06.729Z,94876.38
2023-01-09T00:36:34.908Z,94879.81
2023-01-09T00:39:03.114Z,94880.94
2023-01-09T00:41:36.785Z,94873.28
2023-01-09T00:44:10.031Z,94868.00
2023-01-09T00:46:46.119Z,94876.34
2023-01-09T00:49:16.274Z,94872.66
2023-01-09T00:51:44.445Z,94872.97
2023-01-09T00:54:15.389Z,94874.81
2023-01-09T00:56:44.311Z,94869.50
2023-01-09T00:59:12.465Z,94874.28
2023-01-09T01:01:42.054Z,94866.91
2023-01-09T01:04:24.052Z,94874.56
2023-01-09T01:07:09.945Z,94862.22
2023-01-09T01:09:38.003Z,94860.09
2023-01-09T01:12:07.169Z,94865.78
2023-01-09T01:14:35.624Z,94853.97
2023-01-09T01:17:05.728Z,94850.78
2023-01-09T01:19:35.342Z,94854.22
2023-01-09T01:22:03.874Z,94855.06
2023-01-09T01:24:32.726Z,94854.03
2023-01-09T01:27:01.061Z,94856.00
2023-01-09T01:29:29.434Z,94853.94
2023-01-09T01:31:57.487Z,94851.09
2023-01-09T01:34:27.035Z,94854.44
2023-01-09T01:36:55.106Z,94850.75
2023-01-09T01:39:23.281Z,94856.31
2023-01-09T01:41:51.538Z,94858.69
2023-01-09T01:45:01.911Z,94854.72
2023-01-09T01:47:37.805Z,94860.53
2023-01-09T01:50:16.797Z,94848.16
2023-01-09T01:52:49.194Z,94859.19
2023-01-09T01:55:18.972Z,94854.19
2023-01-09T01:57:51.204Z,94860.50
2023-01-09T02:00:23.208Z,94868.41
2023-01-09T02:02:51.333Z,94868.66
2023-01-09T02:05:20.856Z,94867.56
2023-01-09T02:07:48.851Z,94868.06
2023-01-09T02:10:17.126Z,94871.25
2023-01-09T02:12:45.101Z,94868.06
2023-01-09T02:15:16.286Z,94863.38
2023-01-09T02:18:20.710Z,94859.41
2023-01-09T02:20:58.039Z,94845.50
2023-01-09T02:24:10.664Z,94840.44
2023-01-09T02:27:41.832Z,94847.47
2023-01-09T02:30:40.396Z,94849.41
2023-01-09T02:33:30.857Z,94842.63
2023-01-09T02:36:19.002Z,94848.38
2023-01-09T02:39:00.775Z,94861.59
2023-01-09T02:41:39.274Z,94862.34
2023-01-09T02:44:19.236Z,94875.94
2023-01-09T02:46:48.776Z,94867.34
2023-01-09T02:49:17.699Z,94862.56
2023-01-09T02:51:53.560Z,94879.03
2023-01-09T02:54:34.091Z,94866.28
2023-01-09T02:57:35.665Z,94873.56
2023-01-09T03:00:19.991Z,94876.75
2023-01-09T03:02:54.705Z,94878.25
2023-01-09T03:05:29.292Z,94877.69
2023-01-09T03:08:03.436Z,94888.03
2023-01-09T03:10:39.798Z,94877.53
2023-01-09T03:13:12.779Z,94880.50
2023-01-09T03:15:45.333Z,94885.13
2023-01-09T03:18:16.910Z,94886.94
2023-01-09T03:20:45.504Z,94895.09
2023-01-09T03:23:13.587Z,94903.72
2023-01-09T03:25:41.730Z,94910.56
2023-01-09T03:28:19.395Z,94926.81
2023-01-09T03:30:47.440Z,94928.19
2023-01-09T03:33:16.799Z,94937.66
2023-01-09T03:35:45.015Z,94946.63
2023-01-09T03:38:13.144Z,94959.09
2023-01-09T03:40:44.180Z,94970.03
2023-01-09T03:43:12.295Z,94987.34
2023-01-09T03:45:40.396Z,94996.69
2023-01-09T03:48:08.570Z,95010.06
2023-01-09T03:50:38.137Z,95009.44
2023-01-09T03:53:06.199Z,95025.06
2023-01-09T03:55:34.292Z,95022.19
2023-01-09T03:58:02.420Z,95039.25
2023-01-09T04:00:30.467Z,95045.13
2023-01-09T04:02:58.551Z,95035.22
2023-01-09T04:05:26.637Z,95053.47
2023-01-09T04:07:56.089Z,95074.22
2023-01-09T04:10:24.110Z,95089.88
2023-01-09T04:12:52.117Z,95080.41
2023-01-09T04:15:20.242Z,95088.56
2023-01-09T04:17:48.289Z,95092.41
2023-01-09T04:20:16.993Z,95096.75
2023-01-09T04:22:45.422Z,95112.72
2023-01-09T04:25:15.151Z,95124.13
2023-01-09T04:27:43.362Z,95132.31
2023-01-09T04:30:12.798Z,95130.38
2023-01-09T04:32:40.874Z,95127.63
2023-01-09T04:35:10.052Z,95128.75
2023-01-09T04:37:39.415Z,95124.13
2023-01-09T04:40:10.361Z,95124.94
2023-01-09T04:42:40.972Z,95127.56
2023-01-09T04:45:12.130Z,95120.72
2023-01-09T04:47:40.383Z,95118.81
2023-01-09T04:50:10.179Z,95125.97
2023-01-09T04:52:39.148Z,95129.72
2023-01-09T04:55:08.770Z,95133.59
2023-01-09T04:57:37.546Z,95132.13
2023-01-09T05:00:12.127Z,95134.19
2023-01-09T05:02:40.898Z,95133.25
2023-01-09T05:05:11.823Z,95142.03
2023-01-09T05:07:40.411Z,95136.00
2023-01-09T05:10:11.177Z,95148.31
2023-01-09T05:12:39.813Z,95166.88
2023-01-09T05:15:11.079Z,95173.38
2023-01-09T05:17:39.260Z,95178.84
2023-01-09T05:20:08.477Z,95184.09
2023-01-09T05:22:36.706Z,95184.22
2023-01-09T05:25:05.113Z,95187.50
2023-01-09T05:27:33.162Z,95189.56
2023-01-09T05:30:01.422Z,95197.22
2023-01-09T05:32:30.808Z,95212.00
2023-01-09T05:34:58.897Z,95217.47
2023-01-09T05:37:27.909Z,95210.50
2023-01-09T05:39:56.065Z,95209.72
2023-01-09T05:42:24.242Z,95220.44
2023-01-09T05:44:52.291Z,95212.56
2023-01-09T05:47:20.399Z,95221.00
2023-01-09T05:49:49.816Z,95221.69
2023-01-09T05:52:17.876Z,95223.63
2023-01-09T05:54:45.904Z,95226.25
2023-01-09T05:57:13.966Z,95224.56
2023-01-09T05:59:42.117Z,95216.00
2023-01-09T06:02:10.590Z,95212.22
2023-01-09T06:04:38.778Z,95213.94
2023-01-09T06:07:08.420Z,95219.88
2023-01-09T06:09:36.465Z,95227.94
2023-01-09T06:12:05.130Z,95232.25
2023-01-09T06:14:33.185Z,95235.81
2023-01-09T06:17:02.417Z,95242.84
2023-01-09T06:19:30.554Z,95250.00
2023-01-09T06:21:59.063Z,95254.97
2023-01-09T06:24:28.529Z,95246.41
2023-01-09T06:26:56.740Z,95249.72
2023-01-09T06:29:25.267Z,95258.25
2023-01-09T06:31:53.315Z,95255.06
2023-01-09T06:34:21.466Z,95254.19
2023-01-09T06:36:49.542Z,95258.03
2023-01-09T06:39:17.627Z,95264.50
2023-01-09T06:41:48.588Z,95269.72
2023-01-09T06:44:17.174Z,95258.41
2023-01-09T06:46:45.300Z,95253.66
2023-01-09T06:49:13.550Z,95261.19
2023-01-09T06:51:41.686Z,95266.75
2023-01-09T06:54:09.738Z,95259.97
2023-01-09T06:56:37.777Z,95260.63
2023-01-09T06:59:07.155Z,95262.34
2023-01-09T07:01:35.401Z,95272.81
2023-01-09T07:04:05.383Z,95273.19
2023-01-09T07:06:33.871Z,95274.44
2023-01-09T07:09:01.891Z,95276.63
2023-01-09T07:11:29.914Z,95263.63
2023-01-09T07:13:57.981Z,95270.34
2023-01-09T07:16:27.367Z,95271.59
2023-01-09T07:18:55.464Z,95274.34
2023-01-09T07:21:23.796Z,95273.09
2023-01-09T07:23:51.873Z,95283.56
2023-01-09T07:26:19.929Z,95283.44
2023-01-09T07:28:47.987Z,95282.41
2023-01-09T07:31:16.093Z,95278.75
2023-01-09T07:33:45.706Z,95274.22
2023-01-09T07:36:13.781Z,95280.94
2023-01-09T07:38:42.073Z,95279.25
2023-01-09T07:41:10.193Z,95282.91
2023-01-09T07:43:39.344Z,95282.66
2023-01-09T07:46:07.655Z,95284.81
2023-01-09T07:48:35.794Z,95286.41
2023-01-09T07:51:06.165Z,95287.78
2023-01-09T07:53:34.334Z,95291.56
2023-01-09T07:56:02.387Z,95295.84
2023-01-09T07:58:30.447Z,95294.53
2023-01-09T08:00:58.554Z,95303.75
2023-01-09T08:03:26.871Z,95307.06
2023-01-09T08:05:55.080Z,95316.88
2023-01-09T08:08:24.614Z,95310.41
2023-01-09T08:10:53.044Z,95315.22
2023-01-09T08:13:21.084Z,95319.31
2023-01-09T08:15:49.158Z,95321.81
2023-01-09T08:18:17.365Z,95321.66
2023-01-09T08:20:45.438Z,95318.59
2023-01-09T08:23:13.604Z,95329.31
2023-01-09T08:25:43.108Z,95322.00
2023-01-09T08:28:11.387Z,95327.13
2023-01-09T08:30:39.532Z,95332.63
2023-01-09T08:33:07.646Z,95325.66
2023-01-09T08:35:35.796Z,95341.31
2023-01-09T08:38:04.045Z,95342.31
2023-01-09T08:40:32.149Z,95341.44
2023-01-09T08:43:19.466Z,95343.47
2023-01-09T08:46:05.824Z,95337.78
2023-01-09T08:48:34.026Z,95348.75
2023-01-09T08:51:02.357Z,95345.31
2023-01-09T08:53:31.475Z,95347.72
2023-01-09T08:56:00.046Z,95342.56
2023-01-09T08:58:30.049Z,95350.69
2023-01-09T09:00:59.343Z,95345.97
2023-01-09T09:03:27.375Z,95342.09
2023-01-09T09:05:55.470Z,95344.44
2023-01-09T09:08:23.617Z,95340.31
2023-01-09T09:10:51.725Z,95341.00
2023-01-09T09:13:19.764Z,95344.19
2023-01-09T09:15:49.272Z,95341.38
2023-01-09T09:18:17.357Z,95341.91
2023-01-09T09:20:45.594Z,95340.13
2023-01-09T09:23:13.654Z,95341.47
2023-01-09T09:25:41.746Z,95338.00
2023-01-09T09:28:10.987Z,95337.28
2023-01-09T09:30:39.974Z,95344.38
2023-01-09T09:33:09.680Z,95352.09
2023-01-09T09:35:38.213Z,95355.19
2023-01-09T09:38:07.014Z,95362.59
2023-01-09T09:41:06.733Z,95373.38
2023-01-09T09:44:17.166Z,95365.09
2023-01-09T09:46:57.595Z,95364.06
2023-01-09T09:49:35.429Z,95372.09
2023-01-09T09:52:14.769Z,95364.75
2023-01-09T09:54:48.355Z,95364.28
2023-01-09T09:57:22.814Z,95370.25
2023-01-09T09:59:54.364Z,95365.47
2023-01-09T10:02:29.576Z,95357.63
2023-01-09T10:05:06.247Z,95357.97
2023-01-09T10:07:42.059Z,95351.59
2023-01-09T10:10:19.264Z,95356.84
2023-01-09T10:12:55.527Z,95356.75
2023-01-09T10:15:38.660Z,95349.19
2023-01-09T10:18:23.325Z,95343.13
2023-01-09T10:20:59.389Z,95355.13
2023-01-09T10:24:09.340Z,95342.00
2023-01-09T10:26:43.748Z,95338.31
2023-01-09T10:29:30.762Z,95343.25
2023-01-09T10:32:22.684Z,95347.69
2023-01-09T10:35:02.865Z,95344.75
2023-01-09T10:37:35.577Z,95343.56
2023-01-09T10:40:08.905Z,95325.34
2023-01-09T10:42:43.430Z,95336.28
2023-01-09T10:45:22.074Z,95319.03
2023-01-09T10:47:50.652Z,95324.88
2023-01-09T10:50:23.853Z,95320.16
2023-01-09T10:52:56.427Z,95323.59
2023-01-09T10:55:35.853Z,95312.50
2023-01-09T10:58:13.294Z,95320.38
2023-01-09T11:00:42.727Z,95317.13
2023-01-09T11:03:14.018Z,95310.28
2023-01-09T11:05:42.891Z,95320.22
2023-01-09T11:08:24.064Z,95316.78
2023-01-09T11:10:55.308Z,95314.41
2023-01-09T11:13:26.561Z,95316.91
2023-01-09T11:16:04.967Z,95316.75
2023-01-09T11:18:34.486Z,95319.94
2023-01-09T11:21:28.836Z,95308.72
2023-01-09T11:24:17.989Z,95313.09
2023-01-09T11:26:47.323Z,95318.44
2023-01-09T11:29:18.795Z,95314.22
2023-01-09T11:31:55.581Z,95309.28
2023-01-09T11:34:29.859Z,95306.78
2023-01-09T11:37:07.764Z,95312.03
2023-01-09T11:39:41.773Z,95297.97
2023-01-09T11:42:41.135Z,95306.16
2023-01-09T11:45:17.360Z,95304.44
2023-01-09T11:47:46.259Z,95296.00
2023-01-09T11:50:23.428Z,95291.75
2023-01-09T11:53:14.967Z,95293.03
2023-01-09T11:55:46.982Z,95299.97
2023-01-09T11:58:16.472Z,95297.66
2023-01-09T12:00:56.990Z,95295.50
2023-01-09T12:03:43.783Z,95293.28
2023-01-09T12:06:21.317Z,95297.44
2023-01-09T12:08:57.992Z,95289.06
2023-01-09T12:11:37.991Z,95296.88
2023-01-09T12:14:43.056Z,95299.97
2023-01-09T12:17:53.925Z,95299.72
2023-01-09T12:20:41.866Z,95302.91
2023-01-09T12:23:32.938Z,95311.91
2023-01-09T12:26:15.164Z,95310.59
2023-01-09T12:29:08.133Z,95308.66
2023-01-09T12:31:58.857Z,95310.97
2023-01-09T12:34:51.797Z,95306.50
2023-01-09T12:37:44.471Z,95303.19
2023-01-09T12:40:38.347Z,95300.69
2023-01-09T12:43:20.159Z,95304.78
2023-01-09T12:46:11.821Z,95318.34
2023-01-09T12:49:12.437Z,95326.31
2023-01-09T12:51:46.223Z,95320.75
2023-01-09T12:54:24.872Z,95314.88
2023-01-09T12:56:58.448Z,95311.78
2023-01-09T12:59:33.903Z,95311.22
2023-01-09T13:02:13.996Z,95307.22
2023-01-09T13:04:49.237Z,95309.44
2023-01-09T13:07:22.148Z,95303.47
2023-01-09T13:09:55.933Z,95308.50
2023-01-09T13:12:26.146Z,95311.69
2023-01-09T13:15:00.305Z,95318.94
2023-01-09T13:17:37.815Z,95321.88
2023-01-09T13:20:18.991Z,95323.47
2023-01-09T13:22:50.677Z,95319.84
2023-01-09T13:25:43.327Z,95334.06
2023-01-09T13:28:19.796Z,95342.75
2023-01-09T13:31:42.499Z,95340.25
2023-01-09T13:34:22.025Z,95342.50
2023-01-09T13:36:55.206Z,95349.34
2023-01-09T13:39:26.204Z,95347.44
2023-01-09T13:42:16.067Z,95364.03
2023-01-09T13:44:45.443Z,95372.31
2023-01-09T13:47:22.067Z,95376.91
2023-01-09T13:50:21.172Z,95365.50
2023-01-09T13:52:49.761Z,95374.94
2023-01-09T13:55:36.053Z,95374.97
2023-01-09T13:58:25.851Z,95379.06
2023-01-09T14:01:04.490Z,95386.13
2023-01-09T14:03:37.421Z,95394.81
2023-01-09T14:06:28.162Z,95390.03
2023-01-09T14:09:19.085Z,95393.31
2023-01-09T14:11:48.394Z,95396.44
2023-01-09T14:14:28.866Z,95389.69
2023-01-09T14:16:59.130Z,95392.44
2023-01-09T14:19:39.600Z,95409.28
2023-01-09T14:22:27.144Z,95411.81
2023-01-09T14:24:56.712Z,95413.75
2023-01-09T14:28:08.332Z,95414.44
2023-01-09T14:30:39.408Z,95415.03
2023-01-09T14:33:29.829Z,95412.72
2023-01-09T14:36:17.049Z,95411.69
2023-01-09T14:38:49.789Z,95423.47
2023-01-09T14:41:40.163Z,95425.19
2023-01-09T14:44:26.724Z,95427.03
2023-01-09T14:46:56.689Z,95437.63
2023-01-09T14:49:35.315Z,95428.28
2023-01-09T14:52:11.429Z,95440.81
2023-01-09T14:54:44.524Z,95449.03
2023-01-09T14:57:25.736Z,95449.97
2023-01-09T14:59:59.291Z,95454.41
2023-01-09T15:02:31.077Z,95446.31
2023-01-09T15:05:05.946Z,95443.22
2023-01-09T15:07:41.010Z,95447.91
2023-01-09T15:10:19.429Z,95453.59
2023-01-09T15:12:48.969Z,95461.38
2023-01-09T15:15:19.617Z,95470.72
2023-01-09T15:17:54.913Z,95470.25
2023-01-09T15:20:27.173Z,95485.44
2023-01-09T15:22:56.113Z,95480.97
2023-01-09T15:25:44.940Z,95488.97
2023-01-09T15:28:30.820Z,95512.22
2023-01-09T15:31:05.216Z,95523.19
2023-01-09T15:33:34.898Z,95542.47
2023-01-09T15:36:08.452Z,95551.38
2023-01-09T15:38:37.312Z,95550.31
2023-01-09T15:41:12.644Z,95549.81
2023-01-09T15:43:44.107Z,95547.44
2023-01-09T15:46:13.106Z,95540.16
2023-01-09T15:48:41.486Z,95540.22
2023-01-09T15:51:17.565Z,95537.22
2023-01-09T15:53:50.221Z,95537.47
2023-01-09T15:56:25.084Z,95542.56
2023-01-09T15:58:55.927Z,95547.41
2023-01-09T16:01:30.954Z,95548.19
2023-01-09T16:04:06.900Z,95548.84
2023-01-09T16:06:38.127Z,95551.00
2023-01-09T16:09:16.903Z,95547.69
2023-01-09T16:11:52.031Z,95554.41
2023-01-09T16:14:23.773Z,95561.34
2023-01-09T16:16:53.211Z,95570.66
2023-01-09T16:19:33.119Z,95574.50
2023-01-09T16:22:03.643Z,95571.75
2023-01-09T16:24:42.037Z,95582.25
2023-01-09T16:27:24.070Z,95583.06
2023-01-09T16:29:57.413Z,95581.22
2023-01-09T16:32:30.634Z,95578.91
2023-01-09T16:35:01.714Z,95586.63
2023-01-09T16:37:32.004Z,95590.75
2023-01-09T16:40:29.822Z,95607.59
2023-01-09T16:43:00.546Z,95616.91
2023-01-09T16:45:30.985Z,95617.91
2023-01-09T16:47:59.348Z,95630.06
2023-01-09T16:50:27.368Z,95626.50
2023-01-09T16:52:57.314Z,95620.19
2023-01-09T16:55:25.577Z,95618.50
2023-01-09T16:57:53.784Z,95629.56
2023-01-09T17:00:24.600Z,95627.41
2023-01-09T17:02:52.730Z,95636.13
2023-01-09T17:05:20.843Z,95627.41
2023-01-09T17:07:49.383Z,95635.31
2023-01-09T17:10:22.735Z,95630.88
2023-01-09T17:12:51.920Z,95639.91
2023-01-09T17:15:20.116Z,95644.28
2023-01-09T17:17:49.504Z,95639.09
2023-01-09T17:20:19.121Z,95638.09
2023-01-09T17:22:47.324Z,95647.13
2023-01-09T17:25:34.202Z,95651.78
2023-01-09T17:28:21.703Z,95652.19
2023-01-09T17:30:49.741Z,95650.81
2023-01-09T17:33:20.311Z,95658.88
2023-01-09T17:35:48.480Z,95655.28
2023-01-09T17:38:17.499Z,95657.50
2023-01-09T17:40:46.464Z,95661.91
2023-01-09T17:43:14.853Z,95664.53
2023-01-09T17:45:44.182Z,95664.31
2023-01-09T17:48:18.725Z,95667.88
2023-01-09T17:50:49.805Z,95679.44
2023-01-09T17:53:20.570Z,95687.28
2023-01-09T17:55:48.627Z,95688.81
2023-01-09T17:58:28.965Z,95696.09
2023-01-09T18:00:57.922Z,95700.75
2023-01-09T18:03:33.275Z,95705.97
2023-01-09T18:06:01.922Z,95715.00
2023-01-09T18:08:30.023Z,95713.22
2023-01-09T18:10:58.082Z,95716.78
2023-01-09T18:15:54.350Z,95729.72
2023-01-09T18:18:22.452Z,95739.41
2023-01-09T18:20:52.625Z,95746.13
2023-01-09T18:23:21.621Z,95751.00
2023-01-09T18:25:49.831Z,95759.19
2023-01-09T18:28:18.948Z,95765.22
2023-01-09T18:30:47.867Z,95777.97
2023-01-09T18:33:17.510Z,95776.16
2023-01-09T18:35:46.618Z,95770.78
2023-01-09T18:38:16.511Z,95788.09
2023-01-09T18:40:46.698Z,95788.06
2023-01-09T18:43:15.571Z,95799.28
2023-01-09T18:45:43.960Z,95806.38
2023-01-09T18:48:13.113Z,95804.25
2023-01-09T18:50:41.212Z,95812.34
2023-01-09T18:53:09.325Z,95815.19
2023-01-09T18:55:39.487Z,95826.88
2023-01-09T18:58:08.122Z,95826.34
2023-01-09T19:00:36.859Z,95827.94
2023-01-09T19:03:05.026Z,95833.59
2023-01-09T19:05:33.479Z,95841.25
2023-01-09T19:08:01.608Z,95843.69
2023-01-09T19:10:29.629Z,95850.13
2023-01-09T19:12:59.059Z,95851.38
2023-01-09T19:15:29.778Z,95851.81
2023-01-09T19:17:58.607Z,95857.53
2023-01-09T19:20:26.656Z,95864.31
2023-01-09T19:22:57.042Z,95862.66
2023-01-09T19:25:25.250Z,95868.31
2023-01-09T19:27:55.968Z,95859.84
2023-01-09T19:30:25.745Z,95879.56
2023-01-09T19:32:53.883Z,95875.72
2023-01-09T19:35:21.998Z,95883.16
2023-01-09T19:37:50.136Z,95879.53
2023-01-09T19:40:18.574Z,95887.19
2023-01-09T19:42:47.583Z,95889.03
2023-01-09T19:45:15.759Z,95886.00
2023-01-09T19:47:45.411Z,95891.88
2023-01-09T19:50:13.911Z,95893.47
2023-01-09T19:52:43.260Z,95887.63
2023-01-09T19:55:13.603Z,95900.16
2023-01-09T19:57:42.763Z,95902.13
2023-01-09T20:00:13.501Z,95907.72
2023-01-09T20:02:42.966Z,95912.97
2023-01-09T20:05:12.595Z,95921.44
2023-01-09T20:07:41.900Z,95931.69
2023-01-09T20:10:14.105Z,95935.31
2023-01-09T20:12:43.526Z,95937.97
2023-01-09T20:15:36.822Z,95933.91
2023-01-09T20:18:05.272Z,95937.16
2023-01-09T20:20:34.718Z,95929.09
2023-01-09T20:23:03.535Z,95938.34
2023-01-09T20:25:31.561Z,95937.53
2023-01-09T20:27:59.758Z,95941.56
2023-01-09T20:30:27.796Z,95954.88
2023-01-09T20:32:55.843Z,95960.72
2023-01-09T20:35:24.879Z,95960.72
2023-01-09T20:37:54.297Z,95962.13
2023-01-09T20:40:22.447Z,95973.41
2023-01-09T20:42:50.819Z,95978.06
2023-01-09T20:45:18.877Z,95976.19
2023-01-09T20:47:47.838Z,95976.41
2023-01-09T20:50:16.277Z,95978.59
2023-01-09T20:52:44.524Z,95973.78
2023-01-09T20:55:14.233Z,95974.56
2023-01-09T20:57:42.405Z,95966.13
2023-01-09T21:00:12.274Z,95965.72
2023-01-09T21:02:40.601Z,95966.94
2023-01-09T21:05:09.622Z,95964.31
2023-01-09T21:07:37.668Z,95981.66
2023-01-09T21:10:07.079Z,95986.22
2023-01-09T21:12:38.532Z,95977.38
2023-01-09T21:15:16.627Z,95979.47
2023-01-09T21:17:45.016Z,95984.13
2023-01-09T21:20:15.833Z,95980.34
2023-01-09T21:22:43.878Z,95983.84
2023-01-09T21:25:11.872Z,95992.16
2023-01-09T21:27:42.955Z,95986.56
2023-01-09T21:30:12.406Z,95997.69
2023-01-09T21:32:40.431Z,95993.09
2023-01-09T21:35:09.471Z,95992.97
2023-01-09T21:37:38.885Z,95995.22
2023-01-09T21:40:12.027Z,95997.78
2023-01-09T21:42:59.373Z,96009.38
2023-01-09T21:45:45.255Z,96014.91
2023-01-09T21:48:13.442Z,96019.47
2023-01-09T21:50:42.016Z,96024.22
2023-01-09T21:53:10.308Z,96025.69
2023-01-09T21:55:38.400Z,96030.19
2023-01-09T21:58:31.863Z,96034.84
2023-01-09T22:01:00.687Z,96035.94
2023-01-09T22:03:29.220Z,96055.31
2023-01-09T22:05:57.275Z,96049.28
2023-01-09T22:08:25.344Z,96062.81
2023-01-09T22:10:58.833Z,96061.81
2023-01-09T22:13:28.676Z,96069.72
2023-01-09T22:15:59.275Z,96072.97
2023-01-09T22:18:27.483Z,96079.63
2023-01-09T22:20:55.552Z,96082.44
2023-01-09T22:23:23.608Z,96082.66
2023-01-09T22:25:51.735Z,96093.97
2023-01-09T22:28:19.949Z,96101.84
2023-01-09T22:30:49.644Z,96106.28
2023-01-09T22:33:18.153Z,96107.88
2023-01-09T22:35:46.197Z,96118.56
2023-01-09T22:38:14.435Z,96113.53
2023-01-09T22:40:42.523Z,96125.84
2023-01-09T22:43:14.278Z,96128.28
2023-01-09T22:45:42.423Z,96138.16
2023-01-09T22:48:11.828Z,96143.41
2023-01-09T22:50:39.899Z,96148.25
2023-01-09T22:53:08.035Z,96153.91
2023-01-09T22:55:36.435Z,96160.56
2023-01-09T22:58:04.467Z,96161.97
2023-01-09T23:00:33.630Z,96167.22
2023-01-09T23:03:01.810Z,96158.16
2023-01-09T23:05:31.265Z,96167.19
2023-01-09T23:07:59.342Z,96163.16
2023-01-09T23:10:27.327Z,96173.88
2023-01-09T23:12:55.363Z,96171.25
2023-01-09T23:15:23.363Z,96163.19
2023-01-09T23:17:51.358Z,96169.84
2023-01-09T23:20:19.648Z,96180.72
2023-01-09T23:22:48.988Z,96175.28
2023-01-09T23:25:17.324Z,96178.50
2023-01-09T23:27:45.338Z,96179.72
2023-01-09T23:30:14.153Z,96183.34
2023-01-09T23:32:42.221Z,96181.72
2023-01-09T23:35:10.628Z,96186.38
2023-01-09T23:37:38.797Z,96184.75
2023-01-09T23:40:10.577Z,96199.66
2023-01-09T23:42:56.515Z,96192.81
2023-01-09T23:45:24.529Z,96211.16
2023-01-09T23:47:52.582Z,96209.13
2023-01-09T23:50:21.006Z,96217.78
2023-01-09T23:52:49.065Z,96222.41
2023-01-09T23:55:18.595Z,96230.06
2023-01-09T23:57:46.944Z,96228.06
